Airfield :
LOGIN :

Register | Disclaimer

   EN    FR    IT 

 










Legend :    VFR   Marginal VFR   IFR   Intensive IFR   Very Intensive IFR
Visi :
Ceiling :
>= 8 km
>= 3000ft
5 to 8 km
1000 to 3000 ft
1500m to 5 km
500 to 1000 ft
800 to 1500m
200 to 500 ft
< 800m
< 200 ft
Symbols :   Thunderstorms  Fog  Heavy snow  Heavy precipitations  Wind > 20 kt
SIGMETs :     Misc.  Thunderstorms  Icing  Turbulence  Mountain Waves  Volcanic Ashes






- Airport Elevation : 245 ft
- IATA code : BIQ


LFBZ - Biarritz

CURRENT METAR :
  • 171230Z AUTO 32009KT 280V360 9999 FEW025/// BKN030/// BKN040/// 13/08 Q1021 NOSIG

EXPIRED METARs :
  • 171200Z AUTO 33009KT 270V020 9999 FEW030/// SCT037/// BKN043/// 14/08 Q1021 NOSIG
  • 171130Z AUTO 32010KT 280V360 9999 BKN048/// OVC054/// 13/07 Q1021 NOSIG
  • 171100Z AUTO 31009KT 260V340 9999 FEW025/// SCT038/// OVC052/// 13/07 Q1021 TEMPO 33015G25KT 2500 SHRA SCT010 BKN025TCU
  • 171030Z AUTO 30009KT 270V350 9999 FEW017/// SCT023/// BKN029/// 11/09 Q1022 TEMPO 33015G25KT 2500 SHRA SCT010 BKN025TCU
  • 171000Z AUTO 31009KT 270V340 9999 SCT024/// SCT030/// BKN035/// 12/08 Q1022 TEMPO 33015G25KT 2500 SHRA SCT010 BKN025TCU
  • 170930Z AUTO 34008KT 290V010 9999 FEW023/// BKN044/// BKN050/// 12/08 Q1021 TEMPO 33015G25KT 2500 SHRA SCT010 BKN025TCU
  • 170900Z AUTO 31004KT 280V360 9999 SCT032/// OVC042/// 12/08 Q1021 TEMPO 33015G25KT 2500 SHRA SCT010 BKN025TCU
  • 170830Z AUTO 31006KT 4500 BR FEW006/// BKN013/// BKN022/// 11/09 Q1021 TEMPO 33015G25KT 2500 SHRA SCT010 BKN025TCU

TAF TAF LFBZ
Valid from the 17 at 12:00 until the 18 at 12:00 UTC


171100Z 1712/1812 33010KT 9999 BKN035
TEMPO 1800/1809 4000 -SHRA BKN020TCU



MET'MAP, your aeronautical weather chart ! - Copyright ORBIFLY December 2007 - Disclaimer

ORBIFLY MET'MAP TEAM :

Programming & Development : Alexandra Zaïnal
Original concept : Baudouin d'Aumeries
Technical & hardware support : Manuel Goepfert
Assistance : Marc-Olivier Méhu




SOURCES & CREDITS :

   NOAA